Time;durP1;ratioP1;P1;durP2;ratioP2;P2;SDS_P1;SDS_P2;PMS_P1;PMS_P2;Temp;Humidity;BMP_temperature;BMP_pressure;BME280_temperature;BME280_humidity;BME280_pressure;Samples;Min_cycle;Max_cycle;Signal;HPM_P1;HPM_P2
2023/08/16 00:02:15;;;;;;;12.25;9.52;;;;;;;20.80;100.00;92993.16;5066290;28;20037;-80
2023/08/16 00:04:42;;;;;;;12.70;9.25;;;;;;;20.75;100.00;92991.53;5074665;28;20044;-80
2023/08/16 00:07:08;;;;;;;11.25;8.98;;;;;;;20.70;100.00;92991.75;5075831;28;20514;-80
2023/08/16 00:09:34;;;;;;;11.77;8.93;;;;;;;20.64;100.00;92992.34;5075717;28;20041;-80
2023/08/16 00:11:59;;;;;;;10.48;8.98;;;;;;;20.61;100.00;92988.47;5074288;28;20386;-80
2023/08/16 00:14:25;;;;;;;12.70;8.63;;;;;;;20.55;100.00;92985.22;5075047;28;20102;-80
2023/08/16 00:16:50;;;;;;;11.48;9.15;;;;;;;20.52;100.00;92980.59;5074290;28;20037;-80
2023/08/16 00:19:16;;;;;;;13.50;9.23;;;;;;;20.50;100.00;92985.47;5073534;28;20051;-80
2023/08/16 00:21:42;;;;;;;10.30;8.60;;;;;;;20.44;100.00;92976.16;5079695;28;20498;-79
2023/08/16 00:24:07;;;;;;;11.02;8.98;;;;;;;20.41;100.00;92976.84;5073954;28;20088;-80
2023/08/16 00:26:33;;;;;;;10.13;8.70;;;;;;;20.37;100.00;92979.38;5073851;28;20044;-79
2023/08/16 00:29:00;;;;;;;13.23;10.05;;;;;;;20.36;100.00;92975.19;5072511;28;20024;-80
2023/08/16 00:31:25;;;;;;;12.25;9.82;;;;;;;20.36;100.00;92975.19;5070206;28;20047;-80
2023/08/16 00:33:51;;;;;;;12.50;10.02;;;;;;;20.35;100.00;92976.31;5073025;28;20036;-80
2023/08/16 00:36:17;;;;;;;14.35;9.15;;;;;;;20.36;100.00;92975.19;5075414;28;20483;-80
2023/08/16 00:38:42;;;;;;;13.70;9.23;;;;;;;20.37;100.00;92971.41;5074189;28;20044;-80
2023/08/16 00:41:12;;;;;;;12.75;9.85;;;;;;;20.40;100.00;92975.31;5073977;28;20032;-80
2023/08/16 00:43:39;;;;;;;13.45;9.80;;;;;;;20.39;100.00;92971.06;5071794;28;20028;-80
2023/08/16 00:46:09;;;;;;;12.15;9.93;;;;;;;20.39;100.00;92965.75;5070419;28;20037;-80
2023/08/16 00:48:38;;;;;;;14.15;9.70;;;;;;;20.39;100.00;92973.72;5071614;28;20490;-80
2023/08/16 00:51:06;;;;;;;13.18;10.32;;;;;;;20.39;100.00;92968.41;5072975;28;20036;-80
2023/08/16 00:53:32;;;;;;;13.85;9.85;;;;;;;20.38;100.00;92967.66;5072663;28;20450;-79
2023/08/16 00:55:59;;;;;;;11.48;9.75;;;;;;;20.39;100.00;92963.09;5073600;28;20035;-80
2023/08/16 00:58:26;;;;;;;11.80;9.65;;;;;;;20.39;100.00;92973.72;5073713;28;20048;-80
2023/08/16 01:00:52;;;;;;;11.57;9.93;;;;;;;20.37;100.00;92966.09;5056986;28;20056;-80
2023/08/16 01:03:17;;;;;;;11.30;10.10;;;;;;;20.37;100.00;92960.78;5071999;28;20067;-80
2023/08/16 01:05:43;;;;;;;12.23;9.68;;;;;;;20.36;100.00;92961.13;5072406;28;20041;-80
2023/08/16 01:08:09;;;;;;;16.20;10.02;;;;;;;20.37;100.00;92960.78;5040272;28;20040;-79
2023/08/16 01:10:56;;;;;;;13.95;10.20;;;;;;;20.36;100.00;92969.88;5073104;28;20032;-79
2023/08/16 01:13:34;;;;;;;12.52;10.20;;;;;;;20.36;100.00;92974.41;5073047;28;20028;-80
2023/08/16 01:16:07;;;;;;;12.40;10.30;;;;;;;20.33;100.00;92973.22;5071527;28;20394;-79
2023/08/16 01:18:39;;;;;;;11.70;9.32;;;;;;;20.30;100.00;92975.75;5084455;28;20033;-79
2023/08/16 01:21:08;;;;;;;10.55;9.45;;;;;;;20.27;100.00;92976.44;5073415;28;20082;-79
2023/08/16 01:23:59;;;;;;;13.98;10.25;;;;;;;20.25;100.00;92981.28;5073195;28;20043;-80
2023/08/16 01:26:36;;;;;;;13.17;9.70;;;;;;;20.28;100.00;92980.63;5072706;28;20028;-79
2023/08/16 01:29:04;;;;;;;14.98;10.20;;;;;;;20.28;100.00;92972.66;5069595;28;20286;-79
2023/08/16 01:31:31;;;;;;;13.85;9.77;;;;;;;20.25;100.00;92978.63;5070914;28;20025;-79
2023/08/16 01:33:59;;;;;;;14.75;11.05;;;;;;;20.25;100.00;92975.97;5073023;28;20032;-80
2023/08/16 01:36:28;;;;;;;14.25;11.00;;;;;;;20.28;100.00;92976.06;5072665;28;20052;-80
2023/08/16 01:38:57;;;;;;;13.02;10.38;;;;;;;20.32;100.00;92976.19;5073802;28;20593;-80
2023/08/16 01:41:28;;;;;;;11.23;9.30;;;;;;;20.30;100.00;92981.81;5089750;28;20028;-79
2023/08/16 01:43:56;;;;;;;11.35;9.05;;;;;;;20.27;100.00;92982.50;5089197;28;20059;-80
2023/08/16 01:46:24;;;;;;;11.98;9.82;;;;;;;20.26;100.00;92980.19;5072650;28;20465;-80
2023/08/16 01:48:52;;;;;;;14.48;10.65;;;;;;;20.23;100.00;92980.84;5070809;28;20132;-80
2023/08/16 01:51:18;;;;;;;12.10;10.00;;;;;;;20.27;100.00;92989.72;5074195;28;20520;-79
2023/08/16 01:53:51;;;;;;;12.98;10.55;;;;;;;20.27;100.00;92987.06;5055148;28;20119;-80
2023/08/16 01:56:16;;;;;;;11.00;9.65;;;;;;;20.26;100.00;92980.19;5074012;28;20082;-80
2023/08/16 01:58:42;;;;;;;14.00;9.95;;;;;;;20.25;100.00;92983.94;5071812;28;20036;-80
2023/08/16 02:01:08;;;;;;;11.07;9.77;;;;;;;20.23;100.00;92978.97;5054124;28;20024;-79
2023/08/16 02:03:33;;;;;;;12.35;9.90;;;;;;;20.25;100.00;92986.63;5073392;28;20105;-79
2023/08/16 02:05:59;;;;;;;11.27;9.07;;;;;;;20.24;100.00;92980.53;5066808;28;20410;-80
2023/08/16 02:08:24;;;;;;;11.10;9.15;;;;;;;20.26;100.00;92980.19;5071916;28;20033;-80
2023/08/16 02:10:50;;;;;;;14.77;9.43;;;;;;;20.25;100.00;92978.63;5072448;28;20031;-80
2023/08/16 02:13:16;;;;;;;11.63;9.00;;;;;;;20.24;100.00;92977.06;5074147;28;20043;-79
2023/08/16 02:15:41;;;;;;;11.70;9.25;;;;;;;20.24;100.00;92972.56;5052812;28;20040;-80
2023/08/16 02:18:13;;;;;;;12.80;9.10;;;;;;;20.23;100.00;92970.22;5055991;28;20040;-80
2023/08/16 02:20:40;;;;;;;11.60;9.57;;;;;;;20.18;100.00;92973.88;5072336;28;20044;-79
2023/08/16 02:23:08;;;;;;;11.65;8.77;;;;;;;20.18;100.00;92973.88;5072642;28;20119;-79
2023/08/16 02:25:34;;;;;;;9.05;8.15;;;;;;;20.19;100.00;92967.44;5072005;28;20029;-79
2023/08/16 02:28:00;;;;;;;12.13;8.55;;;;;;;20.16;100.00;92971.56;5039310;28;20401;-79
2023/08/16 02:30:26;;;;;;;11.98;9.13;;;;;;;20.13;100.00;92958.94;5069301;28;20467;-79
2023/08/16 02:32:55;;;;;;;12.98;8.65;;;;;;;20.07;100.00;92957.59;5073112;28;20161;-79
2023/08/16 02:35:21;;;;;;;10.45;8.82;;;;;;;20.07;100.00;92954.19;5070540;28;20039;-79
2023/08/16 02:37:47;;;;;;;10.75;8.13;;;;;;;20.07;100.00;92956.84;5087747;28;20032;-80
2023/08/16 02:40:13;;;;;;;9.95;8.65;;;;;;;20.07;100.00;92956.84;5072010;28;20074;-79
2023/08/16 02:42:38;;;;;;;13.07;8.80;;;;;;;20.06;100.00;92961.38;5064752;28;20518;-79
2023/08/16 02:45:05;;;;;;;10.70;8.88;;;;;;;19.99;100.00;92953.16;5067013;28;20048;-78
2023/08/16 02:47:31;;;;;;;13.05;8.85;;;;;;;19.91;100.00;92951.41;5052265;28;20032;-80
2023/08/16 02:49:56;;;;;;;11.00;8.48;;;;;;;19.86;100.00;92952.41;5071610;28;20063;-79
2023/08/16 02:52:22;;;;;;;10.57;8.70;;;;;;;19.81;100.00;92951.84;5073522;28;20546;-79
2023/08/16 02:54:47;;;;;;;10.30;8.77;;;;;;;19.77;100.00;92951.75;5073365;28;20040;-79
2023/08/16 02:57:13;;;;;;;10.55;8.82;;;;;;;19.74;100.00;92947.84;5072877;28;20032;-79
2023/08/16 02:59:41;;;;;;;14.80;9.20;;;;;;;19.75;100.00;92946.78;5072474;28;20422;-79
2023/08/16 03:02:07;;;;;;;10.27;8.52;;;;;;;19.74;100.00;92939.13;5073578;28;20044;-79
2023/08/16 03:04:33;;;;;;;12.30;8.85;;;;;;;19.72;100.00;92931.50;5072874;28;20536;-79
2023/08/16 03:06:59;;;;;;;11.35;9.18;;;;;;;19.70;100.00;92940.88;5077557;28;20656;-78
2023/08/16 03:09:24;;;;;;;10.27;8.98;;;;;;;19.64;100.00;92939.53;5075545;28;20040;-79
2023/08/16 03:11:50;;;;;;;10.20;8.85;;;;;;;19.60;100.00;92938.66;5076438;28;20052;-78
2023/08/16 03:14:15;;;;;;;11.18;9.02;;;;;;;19.58;100.00;92940.88;5058252;28;20040;-79
2023/08/16 03:16:41;;;;;;;12.00;9.40;;;;;;;19.59;100.00;92939.75;5074197;28;20033;-78
2023/08/16 03:19:07;;;;;;;10.75;8.73;;;;;;;19.59;100.00;92943.19;5075208;28;20032;-79
2023/08/16 03:21:36;;;;;;;10.07;8.98;;;;;;;19.55;100.00;92937.00;5075995;28;20043;-79
2023/08/16 03:24:03;;;;;;;14.60;9.18;;;;;;;19.56;100.00;92946.50;5074568;28;20032;-79
2023/08/16 03:26:28;;;;;;;12.43;9.27;;;;;;;19.55;100.00;92944.97;5075578;28;20063;-79
2023/08/16 03:28:54;;;;;;;11.05;8.68;;;;;;;19.57;100.00;92953.38;5075117;28;20075;-79
2023/08/16 03:31:20;;;;;;;15.32;9.20;;;;;;;19.54;100.00;92952.16;5058821;28;20486;-79
2023/08/16 03:33:45;;;;;;;9.43;8.32;;;;;;;19.56;100.00;92949.91;5075493;28;20036;-79
2023/08/16 03:36:11;;;;;;;12.77;8.90;;;;;;;19.55;100.00;92945.72;5075259;28;20059;-79
2023/08/16 03:38:37;;;;;;;12.15;8.70;;;;;;;19.52;100.00;92953.56;5092004;28;20033;-79
2023/08/16 03:41:03;;;;;;;12.73;8.82;;;;;;;19.48;100.00;92953.47;5075618;28;20037;-79
2023/08/16 03:43:31;;;;;;;9.20;8.20;;;;;;;19.43;100.00;92960.84;5076237;28;20036;-79
2023/08/16 03:45:56;;;;;;;11.55;8.90;;;;;;;19.41;100.00;92952.44;5075588;28;20115;-79
2023/08/16 03:48:22;;;;;;;12.07;9.23;;;;;;;19.40;100.00;92950.91;5074314;28;20132;-79
2023/08/16 03:50:48;;;;;;;10.75;8.75;;;;;;;19.38;100.00;92963.72;5058825;28;20032;-79
2023/08/16 03:53:13;;;;;;;9.15;8.07;;;;;;;19.34;100.00;92959.09;5074864;28;20494;-79
2023/08/16 03:55:39;;;;;;;10.30;8.63;;;;;;;19.33;100.00;92960.19;5074944;28;20418;-79
2023/08/16 03:58:04;;;;;;;11.95;9.13;;;;;;;19.32;100.00;92963.94;5091892;28;20099;-79
2023/08/16 04:00:30;;;;;;;11.80;9.40;;;;;;;19.32;100.00;92969.25;5075866;28;20502;-79
2023/08/16 04:02:57;;;;;;;13.10;9.35;;;;;;;19.31;100.00;92970.34;5057569;28;20063;-79
2023/08/16 04:05:22;;;;;;;12.65;10.02;;;;;;;19.26;100.00;92972.44;5057885;28;20036;-79
2023/08/16 04:07:50;;;;;;;10.82;8.48;;;;;;;19.21;100.00;92968.13;5075901;28;20048;-79
2023/08/16 04:10:15;;;;;;;11.57;9.02;;;;;;;19.19;100.00;92970.31;5073481;28;20036;-79
2023/08/16 04:12:41;;;;;;;12.65;8.80;;;;;;;19.19;100.00;92970.31;5072628;28;20032;-82
2023/08/16 04:15:07;;;;;;;12.07;9.40;;;;;;;19.17;100.00;92975.19;5056010;28;20033;-79
2023/08/16 04:17:33;;;;;;;11.07;9.10;;;;;;;19.16;100.00;92968.31;5071452;28;20526;-79
2023/08/16 04:19:59;;;;;;;10.35;9.23;;;;;;;19.18;100.00;92976.72;5092587;28;20032;-80
2023/08/16 04:22:25;;;;;;;16.27;10.43;;;;;;;19.16;100.00;92973.63;5073515;28;20041;-80
2023/08/16 04:24:51;;;;;;;83.97;17.05;;;;;;;19.17;100.00;92963.81;5076643;28;20370;-80
2023/08/16 04:27:16;;;;;;;16.88;9.88;;;;;;;19.21;100.00;92962.03;5073607;28;20517;-80
2023/08/16 04:29:42;;;;;;;12.75;9.77;;;;;;;19.23;100.00;92967.78;5071119;28;20064;-80
2023/08/16 04:32:07;;;;;;;11.65;9.63;;;;;;;19.25;100.00;92970.88;5089175;28;20398;-79
2023/08/16 04:34:34;;;;;;;15.52;9.88;;;;;;;19.27;100.00;92966.81;5074014;28;20499;-79
2023/08/16 04:36:59;;;;;;;12.07;10.25;;;;;;;19.25;100.00;92971.69;5072163;28;20059;-79
2023/08/16 04:39:25;;;;;;;14.48;9.52;;;;;;;19.28;100.00;92970.25;5071872;28;20452;-80
2023/08/16 04:41:51;;;;;;;12.13;9.43;;;;;;;19.27;100.00;92963.38;5088168;28;20036;-79
2023/08/16 04:44:17;;;;;;;11.32;9.38;;;;;;;19.23;100.00;92965.91;5065082;28;20510;-79
2023/08/16 04:46:43;;;;;;;11.65;10.15;;;;;;;19.23;100.00;92968.56;5072880;28;20041;-80
2023/08/16 04:49:08;;;;;;;15.85;9.38;;;;;;;19.25;100.00;92969.03;5064658;28;20572;-80
2023/08/16 04:51:34;;;;;;;11.05;9.35;;;;;;;19.30;100.00;92968.81;5071327;28;20601;-79
2023/08/16 04:54:00;;;;;;;10.70;8.50;;;;;;;19.35;100.00;92970.47;5072593;28;20044;-80
2023/08/16 04:56:25;;;;;;;9.80;7.90;;;;;;;19.33;100.00;92968.13;5074939;28;20068;-80
2023/08/16 04:58:51;;;;;;;11.13;8.50;;;;;;;19.35;100.00;92967.81;5058041;28;20036;-79
2023/08/16 05:01:18;;;;;;;9.52;8.10;;;;;;;19.39;100.00;92965.28;5052605;28;20020;-80
2023/08/16 05:03:50;;;;;;;14.57;9.20;;;;;;;19.40;100.00;92966.84;5069746;28;20033;-80
2023/08/16 05:06:17;;;;;;;;;;;;;;;19.44;100.00;92967.72;5073925;28;20410;-80
2023/08/16 05:08:43;;;;;;;9.82;7.88;;;;;;;19.46;100.00;92970.84;5074314;28;19984;-80
2023/08/16 05:11:09;;;;;;;10.85;7.82;;;;;;;19.51;100.00;92973.25;5074366;28;20029;-80
2023/08/16 05:13:34;;;;;;;16.75;7.82;;;;;;;19.55;100.00;92972.28;5080649;28;20036;-80
2023/08/16 05:16:00;;;;;;;11.95;8.57;;;;;;;19.60;100.00;92973.94;5067559;28;20020;-80
2023/08/16 05:18:26;;;;;;;10.63;8.73;;;;;;;19.71;100.00;92976.97;5091224;28;20050;-80
2023/08/16 05:20:55;;;;;;;13.40;8.20;;;;;;;19.79;100.00;92970.00;5073871;28;20044;-80
2023/08/16 05:23:21;;;;;;;9.13;8.13;;;;;;;19.88;100.00;92968.81;5075521;28;20074;-80
2023/08/16 05:25:47;;;;;;;11.07;8.07;;;;;;;19.99;100.00;92968.34;5074678;28;20448;-80
2023/08/16 05:28:12;;;;;;;13.18;8.60;;;;;;;20.08;100.00;92961.03;5074309;28;20434;-80
2023/08/16 05:30:38;;;;;;;12.00;8.43;;;;;;;20.18;100.00;92969.34;5073837;28;20043;-80
2023/08/16 05:33:03;;;;;;;9.93;8.35;;;;;;;20.30;100.00;92970.44;5068194;28;20048;-80
2023/08/16 05:35:33;;;;;;;11.80;8.05;;;;;;;20.44;100.00;92970.84;5074100;28;20052;-80
2023/08/16 05:37:59;;;;;;;12.57;9.07;;;;;;;20.57;100.00;92969.72;5070212;28;20043;-80
2023/08/16 05:40:24;;;;;;;11.05;7.85;;;;;;;20.71;100.00;92968.59;5069615;28;20029;-80
2023/08/16 05:42:50;;;;;;;9.60;7.90;;;;;;;20.88;100.00;92976.31;5072716;28;20077;-81
2023/08/16 05:45:16;;;;;;;10.50;8.60;;;;;;;20.98;100.00;92970.50;5074260;28;20036;-81
2023/08/16 05:47:42;;;;;;;14.20;8.70;;;;;;;21.12;100.00;92971.97;5073859;28;20028;-80
2023/08/16 05:50:08;;;;;;;10.32;8.10;;;;;;;21.27;100.00;92973.13;5071298;28;20083;-80
2023/08/16 05:52:33;;;;;;;12.48;8.25;;;;;;;21.40;100.00;92966.63;5089031;28;20505;-80
2023/08/16 05:54:59;;;;;;;13.50;8.18;;;;;;;21.54;100.00;92966.25;5053302;28;20033;-81
2023/08/16 05:57:24;;;;;;;9.43;6.95;;;;;;;21.67;100.00;92962.41;5073712;28;20093;-80
2023/08/16 05:59:50;;;;;;;9.05;7.50;;;;;;;21.80;100.00;92965.75;5075197;28;20054;-81
2023/08/16 06:02:16;;;;;;;9.45;8.15;;;;;;;21.91;100.00;92968.66;5075064;28;20044;-81
2023/08/16 06:04:42;;;;;;;9.77;7.25;;;;;;;22.04;100.00;92964.78;5040339;28;20388;-81
2023/08/16 06:07:08;;;;;;;10.32;7.00;;;;;;;21.88;100.00;92970.13;5067657;28;20040;-81
2023/08/16 06:09:34;;;;;;;9.93;7.47;;;;;;;21.91;100.00;92968.66;5074426;28;20141;-81
2023/08/16 06:12:00;;;;;;;12.25;7.25;;;;;;;21.91;100.00;92961.44;5074738;28;20123;-80
2023/08/16 06:14:26;;;;;;;13.32;7.82;;;;;;;22.03;100.00;92965.91;5075411;28;20490;-81
2023/08/16 06:16:51;;;;;;;13.20;7.07;;;;;;;22.32;100.00;92956.69;5075366;28;20036;-80
2023/08/16 06:19:17;;;;;;;9.35;7.03;;;;;;;23.02;100.00;92960.41;5075707;28;20465;-81
2023/08/16 06:21:42;;;;;;;9.75;7.63;;;;;;;23.83;100.00;92955.00;5057551;28;20044;-81
2023/08/16 06:24:08;;;;;;;10.45;7.25;;;;;;;24.62;100.00;92950.81;5075115;28;20139;-81
2023/08/16 06:26:34;;;;;;;10.20;7.47;;;;;;;25.30;100.00;92956.22;5072854;28;20040;-81
2023/08/16 06:29:00;;;;;;;11.93;7.53;;;;;;;25.73;100.00;92957.41;5072565;28;20099;-81
2023/08/16 06:31:26;;;;;;;9.43;7.38;;;;;;;26.10;100.00;92958.50;5071665;28;20071;-86
2023/08/16 06:33:52;;;;;;;14.55;6.57;;;;;;;26.58;100.00;92955.78;5073400;28;20037;-85
2023/08/16 06:36:19;;;;;;;9.30;6.40;;;;;;;26.92;100.00;92958.22;5036808;28;20151;-87
2023/08/16 06:38:45;;;;;;;9.40;6.68;;;;;;;26.98;100.00;92948.66;5054510;28;20556;-87
2023/08/16 06:41:10;;;;;;;12.82;6.50;;;;;;;27.33;100.00;92958.00;5055851;28;20056;-87
2023/08/16 06:43:36;;;;;;;8.82;6.60;;;;;;;27.14;100.00;92953.72;5076557;28;20041;-82
2023/08/16 06:46:02;;;;;;;9.63;6.45;;;;;;;27.03;100.00;92959.03;5074839;28;20540;-87
2023/08/16 06:48:27;;;;;;;8.43;6.30;;;;;;;27.16;100.00;92957.56;5057903;28;20126;-86
2023/08/16 06:50:54;;;;;;;9.63;6.50;;;;;;;27.57;100.00;92954.63;5072369;28;20119;-86
2023/08/16 06:53:21;;;;;;;10.88;6.38;;;;;;;27.55;100.00;92953.47;5077000;28;20028;-87
2023/08/16 06:55:46;;;;;;;9.18;6.45;;;;;;;27.24;100.00;92962.97;5058276;28;20033;-83
2023/08/16 06:58:12;;;;;;;12.00;6.80;;;;;;;26.79;100.00;92947.03;5075959;28;20119;-86
2023/08/16 07:00:42;;;;;;;8.85;6.53;;;;;;;26.54;100.00;92952.25;5075833;28;20032;-86
2023/08/16 07:03:07;;;;;;;10.43;6.82;;;;;;;26.12;100.00;92958.88;5071790;28;20506;-85
2023/08/16 07:05:33;;;;;;;9.02;6.88;;;;;;;25.88;100.00;92962.94;5075507;28;20043;-82
2023/08/16 07:07:58;;;;;;;10.32;6.55;;;;;;;25.71;100.00;92958.91;5058452;28;20119;-82
2023/08/16 07:10:24;;;;;;;9.68;6.05;;;;;;;25.94;100.00;92959.53;5075362;28;20055;-82
2023/08/16 07:12:50;;;;;;;13.65;6.72;;;;;;;26.29;100.00;92955.56;5076183;28;20075;-82
2023/08/16 07:15:16;;;;;;;9.50;6.13;;;;;;;26.43;100.00;92965.59;5072301;28;20036;-82
2023/08/16 07:17:41;;;;;;;7.93;6.00;;;;;;;26.34;100.00;92955.22;5077093;28;20097;-83
2023/08/16 07:20:07;;;;;;;7.65;6.07;;;;;;;26.37;100.00;92951.03;5076593;28;20474;-83
2023/08/16 07:22:39;;;;;;;11.20;6.65;;;;;;;26.21;100.00;92964.72;5076036;28;20043;-82
2023/08/16 07:25:06;;;;;;;;;;;;;;;25.94;100.00;92962.22;5078478;28;20040;-82
2023/08/16 07:27:31;;;;;;;7.28;6.18;;;;;;;25.81;100.00;92962.84;5078599;28;19940;-82
2023/08/16 07:29:57;;;;;;;8.90;6.95;;;;;;;25.53;100.00;92956.84;5077047;28;20090;-82
2023/08/16 07:32:23;;;;;;;8.95;6.63;;;;;;;25.69;100.00;92959.28;5071704;28;20039;-83
2023/08/16 07:34:48;;;;;;;9.32;5.93;;;;;;;25.98;100.00;92958.78;5075545;28;20411;-82
2023/08/16 07:37:14;;;;;;;8.10;6.32;;;;;;;25.99;100.00;92954.97;5059554;28;20464;-82
2023/08/16 07:39:40;;;;;;;8.05;6.38;;;;;;;25.63;100.00;92963.44;5076798;28;20093;-82
2023/08/16 07:42:09;;;;;;;11.05;6.50;;;;;;;25.91;100.00;92951.44;5076447;28;20032;-82
2023/08/16 07:44:35;;;;;;;9.13;6.18;;;;;;;25.83;100.00;92949.84;5076484;28;20229;-82
2023/08/16 07:47:01;;;;;;;12.07;6.57;;;;;;;26.01;100.00;92949.97;5077908;28;20063;-83
2023/08/16 07:49:27;;;;;;;8.68;5.75;;;;;;;25.95;100.00;92952.25;5078165;28;20052;-82
2023/08/16 07:51:56;;;;;;;7.18;5.60;;;;;;;26.02;100.00;92957.66;5075007;28;20043;-82
2023/08/16 07:54:22;;;;;;;7.70;6.00;;;;;;;26.03;100.00;92953.84;5077572;28;20036;-82
2023/08/16 07:56:48;;;;;;;8.68;6.45;;;;;;;25.73;100.00;92959.31;5077747;28;20067;-82
2023/08/16 07:59:13;;;;;;;8.68;6.45;;;;;;;25.46;100.00;92962.13;5076856;28;20036;-82
2023/08/16 08:01:43;;;;;;;10.23;6.07;;;;;;;25.41;100.00;92959.78;5076133;28;20041;-82
2023/08/16 08:04:09;;;;;;;8.18;5.88;;;;;;;25.19;100.00;92966.06;5076519;28;20067;-82
2023/08/16 08:06:35;;;;;;;9.02;6.53;;;;;;;25.09;100.00;92967.44;5078094;28;20529;-82
2023/08/16 08:09:02;;;;;;;9.82;6.68;;;;;;;24.95;100.00;92968.06;5077417;28;20028;-82
2023/08/16 08:11:28;;;;;;;9.38;6.43;;;;;;;24.82;100.00;92969.44;5076963;28;20033;-82
2023/08/16 08:13:53;;;;;;;10.23;5.95;;;;;;;24.91;100.00;92967.25;5075642;28;20040;-81
2023/08/16 08:16:19;;;;;;;8.93;6.50;;;;;;;25.02;100.00;92968.13;5077023;28;20032;-82
2023/08/16 08:18:45;;;;;;;8.65;6.43;;;;;;;25.21;100.00;92961.09;5078724;28;20387;-82
2023/08/16 08:21:11;;;;;;;9.43;6.68;;;;;;;25.23;100.00;92966.88;5059512;28;20043;-82
2023/08/16 08:23:37;;;;;;;8.95;6.43;;;;;;;25.32;100.00;92962.75;5076599;28;20024;-82
2023/08/16 08:26:02;;;;;;;8.35;6.28;;;;;;;25.43;100.00;92970.13;5058238;28;20498;-82
2023/08/16 08:28:28;;;;;;;9.65;6.70;;;;;;;25.76;100.00;92972.75;5076855;28;20037;-82
2023/08/16 08:30:54;;;;;;;9.50;6.60;;;;;;;25.53;100.00;92975.63;5076201;28;20040;-82
2023/08/16 08:33:20;;;;;;;10.00;6.82;;;;;;;25.39;100.00;92978.13;5058830;28;20041;-82
2023/08/16 08:35:46;;;;;;;8.85;6.20;;;;;;;25.61;100.00;92981.03;5075991;28;20402;-82
2023/08/16 08:38:12;;;;;;;8.93;5.93;;;;;;;25.54;100.00;92976.38;5075384;28;20044;-82
2023/08/16 08:40:38;;;;;;;10.13;6.78;;;;;;;25.76;100.00;92970.06;5076618;28;20028;-82
2023/08/16 08:43:05;;;;;;;9.63;6.20;;;;;;;25.84;100.00;92973.59;5075056;28;20028;-82
2023/08/16 08:45:32;;;;;;;10.60;6.22;;;;;;;25.80;100.00;92980.06;5075018;28;20040;-81
2023/08/16 08:47:59;;;;;;;10.98;5.72;;;;;;;25.88;100.00;92984.38;5075662;28;20141;-82
2023/08/16 08:50:27;;;;;;;8.63;5.60;;;;;;;25.97;100.00;92976.78;5075858;28;20052;-82
2023/08/16 08:52:56;;;;;;;8.70;5.95;;;;;;;26.05;100.00;92983.75;5074716;28;20498;-82
2023/08/16 08:55:24;;;;;;;8.88;6.45;;;;;;;26.01;100.00;92982.16;5056480;28;20025;-82
2023/08/16 08:57:53;;;;;;;8.75;6.32;;;;;;;26.19;100.00;92977.72;5056361;28;20040;-82
2023/08/16 09:00:20;;;;;;;7.55;6.38;;;;;;;26.11;100.00;92982.25;5068421;28;20089;-82
2023/08/16 09:02:52;;;;;;;11.40;6.47;;;;;;;26.41;100.00;92977.88;5075122;28;20485;-82
2023/08/16 09:05:22;;;;;;;8.93;6.35;;;;;;;26.45;100.00;92984.78;5076163;28;20097;-82
2023/08/16 09:07:48;;;;;;;10.52;6.90;;;;;;;26.36;100.00;92987.81;5076245;28;20121;-82
2023/08/16 09:10:15;;;;;;;8.32;7.13;;;;;;;26.20;100.00;92983.88;5076421;28;20082;-82
2023/08/16 09:12:41;;;;;;;10.13;6.60;;;;;;;26.40;100.00;92982.47;5091856;28;20108;-82
2023/08/16 09:15:08;;;;;;;8.60;6.20;;;;;;;26.55;100.00;92984.13;5076201;28;20035;-82
2023/08/16 09:17:34;;;;;;;8.88;7.60;;;;;;;26.14;100.00;92986.09;5076288;28;20051;-82
2023/08/16 09:20:00;;;;;;;10.18;6.93;;;;;;;25.85;100.00;92977.81;5076652;28;20035;-81
2023/08/16 09:22:28;;;;;;;8.75;6.40;;;;;;;26.04;100.00;92974.16;5074834;28;20040;-82
2023/08/16 09:24:58;;;;;;;9.30;6.70;;;;;;;26.31;100.00;92980.09;5075420;28;20020;-82
2023/08/16 09:27:25;;;;;;;9.95;6.40;;;;;;;26.66;100.00;92970.00;5075284;28;20032;-82
2023/08/16 09:29:56;;;;;;;7.50;5.63;;;;;;;26.86;100.00;92968.56;5075953;28;20029;-82
2023/08/16 09:32:22;;;;;;;10.27;5.95;;;;;;;26.68;100.00;92971.19;5079217;28;20048;-82
2023/08/16 09:34:48;;;;;;;9.90;6.28;;;;;;;26.65;100.00;92974.59;5063878;28;20437;-82
2023/08/16 09:37:17;;;;;;;7.43;6.40;;;;;;;26.37;100.00;92972.50;5072921;28;20094;-82
2023/08/16 09:39:43;;;;;;;9.52;6.28;;;;;;;26.40;100.00;92973.66;5075642;28;20036;-83
2023/08/16 09:42:10;;;;;;;10.38;6.07;;;;;;;26.46;100.00;92969.47;5074092;28;20248;-81
2023/08/16 09:44:37;;;;;;;10.75;5.75;;;;;;;26.27;100.00;92967.81;5075107;28;20036;-82
2023/08/16 09:47:15;;;;;;;9.40;8.00;;;;;;;26.48;100.00;92969.84;5057267;28;20044;-82
2023/08/16 09:49:43;;;;;;;9.85;7.03;;;;;;;26.69;100.00;92972.69;5075968;28;20048;-82
2023/08/16 09:52:12;;;;;;;9.30;8.10;;;;;;;26.93;100.00;92959.75;5074396;28;20034;-83
2023/08/16 09:54:38;;;;;;;7.45;5.75;;;;;;;27.09;100.00;92962.13;5074715;28;20036;-83
2023/08/16 09:57:04;;;;;;;8.45;5.80;;;;;;;27.00;100.00;92959.81;5075125;28;20410;-82
2023/08/16 09:59:33;;;;;;;7.90;5.93;;;;;;;26.95;100.00;92971.69;5057401;28;20048;-82
2023/08/16 10:01:59;;;;;;;8.75;5.95;;;;;;;26.99;100.00;92966.31;5075101;28;20044;-83
2023/08/16 10:04:27;;;;;;;9.05;5.93;;;;;;;26.92;100.00;92963.59;5074756;28;20032;-82
2023/08/16 10:06:53;;;;;;;7.85;6.00;;;;;;;26.89;100.00;92964.38;5073735;28;20454;-82
2023/08/16 10:09:19;;;;;;;8.65;6.03;;;;;;;26.75;100.00;92955.09;5074830;28;20088;-82
2023/08/16 10:11:45;;;;;;;8.30;5.97;;;;;;;26.89;100.00;92954.38;5075412;28;20028;-83
2023/08/16 10:14:12;;;;;;;9.90;6.20;;;;;;;27.00;100.00;92959.81;5074787;28;20068;-83
2023/08/16 10:16:38;;;;;;;8.73;6.45;;;;;;;27.07;100.00;92959.06;5075366;28;20140;-82
2023/08/16 10:19:05;;;;;;;9.05;6.57;;;;;;;27.07;100.00;92954.47;5075252;28;20024;-82
2023/08/16 10:21:34;;;;;;;9.10;6.75;;;;;;;27.16;100.00;92954.09;5074692;28;20040;-82
2023/08/16 10:24:01;;;;;;;8.20;5.80;;;;;;;27.28;100.00;92948.41;5074712;28;20116;-83
2023/08/16 10:26:32;;;;;;;7.85;6.30;;;;;;;27.23;100.00;92950.69;5074355;28;20405;-83
2023/08/16 10:29:05;;;;;;;10.02;6.82;;;;;;;27.11;100.00;92955.25;5074837;28;20129;-83
2023/08/16 10:31:36;;;;;;;9.88;7.32;;;;;;;26.94;100.00;92951.34;5069761;28;20033;-82
2023/08/16 10:34:03;;;;;;;12.43;7.40;;;;;;;27.25;100.00;92943.03;5070944;28;20514;-85
2023/08/16 10:36:29;;;;;;;8.48;6.50;;;;;;;27.36;100.00;92949.22;5071190;28;20083;-80
2023/08/16 10:38:56;;;;;;;8.70;6.38;;;;;;;27.59;100.00;92943.47;5069524;28;20060;-84
2023/08/16 10:41:22;;;;;;;9.80;7.35;;;;;;;27.60;100.00;92943.09;5071000;28;20037;-81
2023/08/16 10:43:53;;;;;;;8.32;6.97;;;;;;;27.50;100.00;92938.47;5074494;28;20032;-81
2023/08/16 10:46:29;;;;;;;9.73;7.35;;;;;;;27.25;100.00;92941.13;5072091;28;20028;-80
2023/08/16 10:48:59;;;;;;;9.07;6.80;;;;;;;27.27;100.00;92932.66;5071307;28;20119;-81
2023/08/16 10:51:25;;;;;;;12.07;6.60;;;;;;;27.22;100.00;92935.72;5072057;28;20028;-80
2023/08/16 10:53:51;;;;;;;8.93;7.22;;;;;;;27.25;100.00;92945.72;5068869;28;20029;-80
2023/08/16 10:56:19;;;;;;;9.23;7.07;;;;;;;27.38;100.00;92936.13;5072487;28;20514;-82
2023/08/16 10:58:52;;;;;;;12.30;7.47;;;;;;;27.30;100.00;92942.66;5073233;28;20032;-81
2023/08/16 11:01:19;;;;;;;9.73;7.32;;;;;;;27.49;100.00;92936.91;5072391;28;20036;-82
2023/08/16 11:03:46;;;;;;;10.32;6.93;;;;;;;27.75;100.00;92940.44;5072077;28;20040;-82
2023/08/16 11:06:12;;;;;;;8.73;7.10;;;;;;;27.99;100.00;92942.38;5069484;28;20033;-82
2023/08/16 11:08:41;;;;;;;9.82;7.40;;;;;;;28.20;100.00;92925.44;5073211;28;20079;-82
2023/08/16 11:11:06;;;;;;;8.05;6.50;;;;;;;28.49;100.00;92938.13;5072285;28;20036;-82
2023/08/16 11:13:32;;;;;;;10.63;7.55;;;;;;;28.38;100.00;92930.81;5072840;28;20059;-82
2023/08/16 11:15:57;;;;;;;8.32;6.65;;;;;;;28.43;100.00;92929.66;5071111;28;20482;-83
2023/08/16 11:18:31;;;;;;;9.10;6.85;;;;;;;27.78;100.00;92926.97;5071743;28;20500;-83